Time;durP1;ratioP1;P1;durP2;ratioP2;P2;SDS_P1;SDS_P2;PMS_P1;PMS_P2;Temp;Humidity;BMP_temperature;BMP_pressure;BME280_temperature;BME280_humidity;BME280_pressure;Samples;Min_cycle;Max_cycle;Signal;HPM_P1;HPM_P2
2022/12/20 00:02:39;;;;;;;7.27;3.53;;;;;;;7.98;86.30;101377.94;6111859;28;20251;-69
2022/12/20 00:06:01;;;;;;;5.23;2.97;;;;;;;8.05;85.78;101371.16;6101186;28;20344;-71
2022/12/20 00:09:24;;;;;;;4.07;3.73;;;;;;;8.04;85.21;101358.69;6121899;28;20239;-69
2022/12/20 00:12:44;;;;;;;2.87;2.67;;;;;;;7.99;85.96;101356.34;6110705;28;20322;-70
2022/12/20 00:16:07;;;;;;;6.97;3.73;;;;;;;8.01;86.36;101357.09;6111234;28;20322;-70
2022/12/20 00:19:28;;;;;;;3.97;3.67;;;;;;;7.99;86.23;101331.31;6120008;28;20531;-70
2022/12/20 00:22:50;;;;;;;5.03;4.37;;;;;;;8.12;85.35;101342.03;6100369;28;20318;-69
2022/12/20 00:26:14;;;;;;;3.17;2.90;;;;;;;8.01;85.78;101335.59;6104453;28;20605;-69
2022/12/20 00:29:35;;;;;;;5.73;4.27;;;;;;;7.97;86.62;101333.25;6117610;28;20273;-70
2022/12/20 00:32:55;;;;;;;3.60;2.40;;;;;;;8.06;85.52;101346.03;6110174;28;20231;-70
2022/12/20 00:36:17;;;;;;;3.63;3.33;;;;;;;7.97;86.84;101343.97;6130058;28;20570;-70
2022/12/20 00:39:41;;;;;;;5.23;4.20;;;;;;;7.97;86.09;101354.72;6081344;28;20240;-70
2022/12/20 00:43:03;;;;;;;3.37;2.47;;;;;;;7.96;86.90;101348.50;6103600;28;21065;-69
2022/12/20 00:46:26;;;;;;;4.33;2.70;;;;;;;7.93;87.44;101340.66;6101387;28;20240;-70
2022/12/20 00:49:46;;;;;;;5.53;3.60;;;;;;;8.06;86.34;101341.53;6111163;28;20239;-70
2022/12/20 00:53:08;;;;;;;3.40;3.10;;;;;;;7.96;86.87;101342.28;6122920;28;20331;-70
2022/12/20 00:56:31;;;;;;;4.60;4.20;;;;;;;7.94;87.11;101337.03;6113862;28;20228;-70
2022/12/20 00:59:52;;;;;;;3.17;2.80;;;;;;;7.94;87.66;101339.72;6105109;28;20232;-70
2022/12/20 01:03:13;;;;;;;4.67;3.37;;;;;;;7.98;86.64;101330.47;6110110;28;20768;-70
2022/12/20 01:06:34;;;;;;;3.23;3.03;;;;;;;7.96;87.36;101324.34;6116779;28;20244;-70
2022/12/20 01:09:55;;;;;;;3.93;2.87;;;;;;;8.00;87.64;101325.84;6104989;29;20641;-70
2022/12/20 01:13:17;;;;;;;4.60;4.20;;;;;;;7.93;87.68;101331.75;6108849;28;20610;-70
2022/12/20 01:16:41;;;;;;;3.67;3.30;;;;;;;7.97;87.06;101318.00;6108880;28;20227;-70
2022/12/20 01:20:02;;;;;;;4.23;3.27;;;;;;;8.01;87.35;101327.56;6111478;28;20240;-69
2022/12/20 01:23:23;;;;;;;4.53;4.13;;;;;;;8.01;87.65;101337.44;6114430;28;20227;-69
2022/12/20 01:26:45;;;;;;;2.67;2.33;;;;;;;8.03;87.14;101325.63;6114760;28;20236;-69
2022/12/20 01:30:10;;;;;;;3.87;2.80;;;;;;;8.11;86.56;101341.19;6113795;28;20697;-69
2022/12/20 01:33:31;;;;;;;3.50;3.20;;;;;;;8.06;87.31;101336.16;6114683;28;20589;-70
2022/12/20 01:36:52;;;;;;;3.87;3.50;;;;;;;8.01;88.22;101332.91;6108233;28;20231;-70
2022/12/20 01:40:13;;;;;;;3.77;3.37;;;;;;;8.12;87.68;101331.28;6110520;28;21110;-70
2022/12/20 01:43:50;;;;;;;7.23;3.10;;;;;;;8.14;87.81;101329.34;6107022;28;20587;-69
2022/12/20 01:47:13;;;;;;;3.47;3.10;;;;;;;8.11;86.92;101330.47;6103044;28;20247;-69
2022/12/20 01:50:34;;;;;;;6.13;4.33;;;;;;;8.08;87.68;101314.56;6108839;28;20232;-69
2022/12/20 01:53:59;;;;;;;3.33;2.93;;;;;;;8.27;86.71;101311.44;6111548;28;20564;-70
2022/12/20 01:57:25;;;;;;;3.73;3.43;;;;;;;8.33;87.68;101302.94;6109447;28;20236;-69
2022/12/20 02:00:46;;;;;;;4.60;4.13;;;;;;;8.34;87.43;101310.91;6109912;28;20243;-70
2022/12/20 02:04:08;;;;;;;6.73;4.37;;;;;;;8.33;87.66;101316.38;6113330;28;20240;-71
2022/12/20 02:07:33;;;;;;;3.73;3.27;;;;;;;8.32;88.07;101301.22;6097375;28;20232;-70
2022/12/20 02:11:10;;;;;;;5.03;3.37;;;;;;;8.51;87.49;101293.56;6095684;28;20236;-71
2022/12/20 02:14:42;;;;;;;3.67;3.20;;;;;;;8.56;87.58;101305.66;6089873;28;20236;-70
2022/12/20 02:18:16;;;;;;;4.37;3.73;;;;;;;8.57;87.28;101301.16;6093554;28;20959;-70
2022/12/20 02:21:43;;;;;;;2.67;2.47;;;;;;;8.59;87.45;101302.75;6092079;28;20733;-69
2022/12/20 02:25:23;;;;;;;2.73;2.53;;;;;;;8.70;88.09;101310.00;6094320;28;20629;-69
2022/12/20 02:29:06;;;;;;;3.13;2.23;;;;;;;8.81;87.38;101296.63;6090652;28;20263;-70
2022/12/20 02:32:33;;;;;;;4.43;3.40;;;;;;;8.79;87.69;101296.75;6090819;28;20255;-69
2022/12/20 02:35:54;;;;;;;4.83;2.63;;;;;;;8.79;87.20;101288.69;6085541;28;20236;-70
2022/12/20 02:39:15;;;;;;;3.63;2.43;;;;;;;8.85;87.02;101287.38;6090807;28;20224;-70
2022/12/20 02:42:36;;;;;;;3.40;2.87;;;;;;;8.81;87.45;101284.06;6089490;28;20244;-69
2022/12/20 02:45:58;;;;;;;5.13;3.07;;;;;;;8.88;87.42;101275.53;6082852;28;20263;-69
2022/12/20 02:49:25;;;;;;;3.50;2.60;;;;;;;9.08;87.14;101277.56;6088826;28;20236;-71
2022/12/20 02:52:46;;;;;;;6.47;2.83;;;;;;;9.10;87.43;101273.78;6092795;28;20609;-70
2022/12/20 02:56:14;;;;;;;1.97;1.87;;;;;;;9.00;87.46;101272.78;6105295;28;20686;-69
2022/12/20 02:59:41;;;;;;;3.93;3.53;;;;;;;8.97;87.63;101270.31;6092950;28;20239;-68
2022/12/20 03:06:57;;;;;;;3.70;2.40;;;;;;;9.19;87.86;101264.16;6094123;28;20331;-70
2022/12/20 03:10:19;;;;;;;2.40;2.20;;;;;;;9.40;86.33;101276.81;6104974;28;20251;-69
2022/12/20 03:13:40;;;;;;;1.70;1.60;;;;;;;9.50;86.65;101260.81;6091049;28;20244;-70
2022/12/20 03:17:03;;;;;;;2.77;2.33;;;;;;;9.40;86.17;101255.28;6091246;28;21296;-70
2022/12/20 03:20:24;;;;;;;7.20;2.83;;;;;;;9.34;87.01;101271.06;6111542;28;21983;-69
2022/12/20 03:23:47;;;;;;;2.90;2.60;;;;;;;9.42;87.10;101277.56;6083113;28;20236;-70
2022/12/20 03:27:08;;;;;;;3.17;2.43;;;;;;;9.42;86.48;101274.88;6102111;28;20236;-71
2022/12/20 03:30:29;;;;;;;3.20;2.87;;;;;;;9.35;86.89;101276.31;6085948;28;20244;-70
2022/12/20 03:33:50;;;;;;;3.90;3.00;;;;;;;9.25;87.53;101263.69;6103392;28;20231;-69
2022/12/20 03:37:11;;;;;;;2.90;2.63;;;;;;;9.25;87.41;101263.69;6085376;28;20525;-70
2022/12/20 03:40:34;;;;;;;2.83;2.57;;;;;;;9.33;87.47;101261.25;6090443;28;20231;-69
2022/12/20 03:43:56;;;;;;;6.57;2.63;;;;;;;9.39;86.62;101282.28;6090605;28;20541;-70
2022/12/20 03:47:17;;;;;;;6.73;2.60;;;;;;;9.40;86.60;101279.50;6090436;28;20637;-69
2022/12/20 03:50:40;;;;;;;3.13;1.90;;;;;;;9.43;86.38;101281.06;6088485;28;20259;-69
2022/12/20 03:54:03;;;;;;;4.23;3.07;;;;;;;9.42;86.65;101264.09;6084155;28;20267;-69
2022/12/20 03:57:44;;;;;;;3.63;2.43;;;;;;;9.44;86.33;101247.81;6091001;28;20252;-70
2022/12/20 04:01:27;;;;;;;4.40;1.87;;;;;;;9.54;86.01;101256.88;6090376;28;20259;-70
2022/12/20 04:04:49;;;;;;;4.00;2.70;;;;;;;9.59;85.71;101252.88;6088754;28;20240;-70
2022/12/20 04:08:10;;;;;;;2.13;2.03;;;;;;;9.57;85.70;101259.34;6105354;28;20229;-71
2022/12/20 04:11:30;;;;;;;2.50;2.30;;;;;;;9.68;85.17;101250.44;6089995;28;20239;-71
2022/12/20 04:15:02;;;;;;;3.33;2.03;;;;;;;9.75;84.63;101254.34;6088868;28;20239;-70
2022/12/20 04:18:24;;;;;;;3.27;2.80;;;;;;;9.68;85.08;101258.50;6089934;28;20258;-71
2022/12/20 04:21:45;;;;;;;2.63;1.97;;;;;;;9.69;84.88;101255.69;6091063;28;20359;-69
2022/12/20 04:25:08;;;;;;;3.60;2.90;;;;;;;9.57;85.20;101238.66;6099119;28;20706;-71
2022/12/20 04:28:34;;;;;;;2.77;2.57;;;;;;;9.75;84.57;101243.56;6085332;28;20641;-70
2022/12/20 04:31:57;;;;;;;2.43;2.03;;;;;;;9.72;84.92;101243.84;6088980;28;20240;-71
2022/12/20 04:35:18;;;;;;;3.43;2.33;;;;;;;9.53;85.34;101241.72;6089011;28;20232;-69
2022/12/20 04:38:40;;;;;;;3.23;2.60;;;;;;;9.46;85.87;101245.88;6091729;28;20239;-70
2022/12/20 04:42:01;;;;;;;2.57;2.30;;;;;;;9.40;86.37;101244.53;6094342;28;20584;-70
2022/12/20 04:45:22;;;;;;;3.50;2.83;;;;;;;9.40;86.25;101232.91;6091120;28;20338;-71
2022/12/20 04:48:45;;;;;;;3.97;2.70;;;;;;;9.38;86.08;101235.72;6102148;28;20264;-70
2022/12/20 04:55:42;;;;;;;2.37;2.17;;;;;;;9.30;87.23;101234.59;6092305;28;20611;-71
2022/12/20 04:59:03;;;;;;;3.90;2.07;;;;;;;9.49;85.88;101238.41;6103432;28;20252;-70
2022/12/20 05:02:25;;;;;;;2.60;2.40;;;;;;;9.39;87.17;101239.25;6086066;28;20232;-71
2022/12/20 05:05:52;;;;;;;2.33;2.00;;;;;;;9.53;87.04;101242.56;6086902;28;20322;-70
2022/12/20 05:09:14;;;;;;;2.30;2.10;;;;;;;9.34;88.96;101239.63;6086984;28;20227;-70
2022/12/20 05:12:35;;;;;;;4.13;3.73;;;;;;;9.34;89.00;101239.63;6096099;28;20232;-70
2022/12/20 05:15:58;;;;;;;4.00;2.87;;;;;;;9.50;88.80;101236.56;6083419;28;20251;-71
2022/12/20 05:19:23;;;;;;;2.57;2.33;;;;;;;9.37;89.64;101238.50;6087301;28;20231;-71
2022/12/20 05:26:30;;;;;;;3.63;3.17;;;;;;;9.36;90.05;101229.59;6089243;28;20239;-71
2022/12/20 05:29:51;;;;;;;3.13;2.73;;;;;;;9.33;90.42;101226.28;6081178;28;20236;-70
2022/12/20 05:33:12;;;;;;;3.83;3.03;;;;;;;9.26;90.79;101225.88;6073907;28;20251;-70
2022/12/20 05:36:35;;;;;;;3.83;2.70;;;;;;;9.22;91.16;101228.97;6090436;28;20240;-70
2022/12/20 05:40:00;;;;;;;7.87;2.80;;;;;;;9.24;91.08;101230.53;6099179;28;20239;-71
2022/12/20 05:43:21;;;;;;;2.50;2.30;;;;;;;9.08;92.76;101218.41;6087950;28;20250;-71
2022/12/20 05:46:42;;;;;;;4.10;3.27;;;;;;;9.00;93.14;101216.31;6079187;28;20227;-69
2022/12/20 05:50:10;;;;;;;3.50;3.20;;;;;;;8.99;93.21;101214.56;6092081;28;20235;-70
2022/12/20 05:53:50;;;;;;;2.60;2.10;;;;;;;9.01;92.48;101218.00;6080084;28;20654;-70
2022/12/20 05:57:17;;;;;;;4.40;3.23;;;;;;;8.99;92.86;101219.94;6081477;28;20310;-71
2022/12/20 06:00:38;;;;;;;3.50;3.13;;;;;;;9.04;92.60;101214.22;6095557;28;20236;-71
2022/12/20 06:03:59;;;;;;;3.33;3.03;;;;;;;9.03;92.72;101216.09;6080188;28;20232;-71
2022/12/20 06:07:21;;;;;;;4.57;3.37;;;;;;;9.01;92.92;101222.56;6100543;28;20267;-70
2022/12/20 06:10:45;;;;;;;3.40;2.73;;;;;;;9.06;93.34;101223.03;6096364;28;20235;-70
2022/12/20 06:14:10;;;;;;;4.17;3.33;;;;;;;8.97;93.48;101221.91;6095107;28;20533;-70
2022/12/20 06:17:34;;;;;;;2.53;2.33;;;;;;;8.98;93.80;101236.22;6095024;28;20322;-71
2022/12/20 06:20:55;;;;;;;5.83;2.83;;;;;;;8.99;94.35;101252.22;6100814;28;20237;-70
2022/12/20 06:24:17;;;;;;;4.60;3.30;;;;;;;9.00;94.80;101248.56;6088294;28;20327;-70
2022/12/20 06:27:40;;;;;;;5.97;3.17;;;;;;;9.05;95.86;101242.84;6109014;28;20251;-69
2022/12/20 06:31:06;;;;;;;6.73;4.40;;;;;;;9.09;95.80;101242.50;6115543;28;20236;-69
2022/12/20 06:34:41;;;;;;;3.17;2.90;;;;;;;9.15;96.83;101244.72;6106783;28;20236;-71
2022/12/20 06:38:02;;;;;;;3.40;3.10;;;;;;;9.31;96.37;101244.38;6111138;28;20236;-70
2022/12/20 06:41:26;;;;;;;2.47;1.93;;;;;;;9.42;96.34;101249.78;6109099;28;20284;-70
2022/12/20 06:44:48;;;;;;;3.67;2.40;;;;;;;9.31;96.15;101231.78;6106388;28;20228;-69
2022/12/20 06:48:11;;;;;;;3.13;2.70;;;;;;;9.26;96.75;101222.38;6088077;28;20236;-69
2022/12/20 06:51:32;;;;;;;3.37;3.07;;;;;;;9.22;96.73;101218.22;6076145;28;20614;-71
2022/12/20 06:54:54;;;;;;;3.70;2.97;;;;;;;9.20;96.78;101222.84;6090352;29;20644;-69
2022/12/20 06:58:16;;;;;;;2.73;2.53;;;;;;;9.22;96.42;101231.66;6102388;28;20632;-70
2022/12/20 07:01:39;;;;;;;5.80;3.23;;;;;;;9.18;96.41;101227.50;6101982;28;21728;-70
2022/12/20 07:05:01;;;;;;;4.37;4.00;;;;;;;9.13;96.83;101238.59;6103876;28;20240;-70
2022/12/20 07:08:23;;;;;;;3.13;2.83;;;;;;;9.17;97.40;101239.22;6112404;28;20355;-71
2022/12/20 07:11:44;;;;;;;4.00;2.80;;;;;;;9.11;98.06;101235.16;6083609;28;20826;-69
2022/12/20 07:15:06;;;;;;;3.60;2.63;;;;;;;9.12;98.30;101241.38;6111580;28;20241;-70
2022/12/20 07:18:27;;;;;;;4.57;3.97;;;;;;;9.07;98.69;101240.91;6103411;28;20235;-70
2022/12/20 07:21:49;;;;;;;4.17;3.17;;;;;;;9.08;98.58;101256.03;6109308;28;20810;-69
2022/12/20 07:25:10;;;;;;;3.93;2.93;;;;;;;9.13;99.19;101254.75;6108597;28;20225;-69
2022/12/20 07:28:31;;;;;;;3.17;2.63;;;;;;;9.10;99.27;101248.72;6118400;28;20637;-68
2022/12/20 07:31:52;;;;;;;7.57;4.13;;;;;;;9.11;98.68;101240.56;6094610;28;20322;-68
2022/12/20 07:35:14;;;;;;;2.97;2.53;;;;;;;9.14;98.76;101232.22;6116444;28;20323;-69
2022/12/20 07:38:37;;;;;;;4.17;3.77;;;;;;;9.13;99.08;101226.97;6110640;28;20254;-70
2022/12/20 07:41:58;;;;;;;2.73;2.27;;;;;;;9.13;98.35;101217.09;6100167;28;20228;-70
2022/12/20 07:45:19;;;;;;;4.07;3.53;;;;;;;9.14;99.16;101218.78;6104870;28;20236;-69
2022/12/20 07:48:40;;;;;;;2.87;2.67;;;;;;;9.09;98.57;101215.59;6100278;28;20326;-70
2022/12/20 07:52:04;;;;;;;5.70;2.93;;;;;;;9.06;98.75;101233.78;6100898;28;20264;-69
2022/12/20 07:55:28;;;;;;;6.03;3.70;;;;;;;8.99;99.24;101244.16;6103382;28;20231;-69
2022/12/20 07:58:52;;;;;;;4.57;3.70;;;;;;;8.96;99.51;101227.41;6102665;28;20240;-69
2022/12/20 08:02:17;;;;;;;3.50;3.20;;;;;;;8.95;99.40;101218.47;6098861;28;20542;-70
2022/12/20 08:05:41;;;;;;;4.27;3.87;;;;;;;8.94;99.20;101205.16;6108891;28;20236;-69
2022/12/20 08:09:05;;;;;;;4.63;4.23;;;;;;;8.92;99.41;101201.72;6110854;28;20236;-69
2022/12/20 08:12:30;;;;;;;3.93;3.53;;;;;;;8.93;99.29;101198.09;6094494;28;20275;-69
2022/12/20 08:15:50;;;;;;;4.93;3.60;;;;;;;8.97;98.89;101213.84;6116330;28;20244;-69
2022/12/20 08:19:11;;;;;;;6.00;3.30;;;;;;;8.98;98.09;101209.31;6105461;28;20232;-70
2022/12/20 08:22:32;;;;;;;4.47;4.07;;;;;;;9.00;98.36;101210.06;6108730;28;20504;-70
2022/12/20 08:25:53;;;;;;;3.97;3.50;;;;;;;8.98;97.54;101204.81;6107745;28;20619;-70
2022/12/20 08:29:15;;;;;;;3.33;3.03;;;;;;;8.98;97.60;101187.81;6107809;28;20227;-69
2022/12/20 08:32:37;;;;;;;5.40;3.87;;;;;;;8.96;97.52;101192.44;6105208;28;20232;-70
2022/12/20 08:35:58;;;;;;;5.83;3.73;;;;;;;8.94;97.03;101189.91;6110374;28;20236;-70
2022/12/20 08:39:19;;;;;;;6.57;4.47;;;;;;;8.98;97.24;101190.50;6108170;28;20252;-70
2022/12/20 08:42:40;;;;;;;4.30;3.87;;;;;;;9.01;97.00;101190.28;6107228;28;20231;-69
2022/12/20 08:46:03;;;;;;;3.93;3.47;;;;;;;9.00;96.40;101191.25;6106002;28;20248;-70
2022/12/20 08:49:23;;;;;;;4.50;3.40;;;;;;;9.09;95.88;101188.72;6112085;28;20248;-69
2022/12/20 08:52:44;;;;;;;7.50;5.67;;;;;;;9.13;95.51;101184.81;6105179;28;20223;-67
2022/12/20 08:56:06;;;;;;;6.27;3.77;;;;;;;9.26;94.37;101184.72;6112699;28;20278;-69
2022/12/20 08:59:27;;;;;;;5.43;3.70;;;;;;;9.23;94.09;101182.25;6112649;28;20640;-69
2022/12/20 09:02:50;;;;;;;4.30;3.33;;;;;;;9.24;94.04;101174.03;6097958;28;20231;-69
2022/12/20 09:06:14;;;;;;;5.03;4.60;;;;;;;9.39;93.45;101164.78;6109769;28;20243;-68
2022/12/20 09:09:35;;;;;;;4.17;3.77;;;;;;;9.45;92.70;101166.13;6103419;28;20232;-68
2022/12/20 09:12:56;;;;;;;4.07;3.17;;;;;;;9.57;91.77;101184.81;6103121;28;21178;-69
2022/12/20 09:16:19;;;;;;;3.43;3.13;;;;;;;9.59;92.10;101171.28;6107996;28;20228;-69
2022/12/20 09:19:41;;;;;;;4.63;3.57;;;;;;;9.59;91.11;101166.75;6104205;28;20669;-69
2022/12/20 09:23:02;;;;;;;5.60;4.17;;;;;;;9.61;91.55;101172.00;6113898;28;21047;-69
2022/12/20 09:26:24;;;;;;;8.77;6.20;;;;;;;9.65;91.21;101168.94;6116305;28;20239;-68
2022/12/20 09:29:44;;;;;;;6.43;5.43;;;;;;;9.70;91.03;101175.78;6114771;28;20236;-68
2022/12/20 09:33:05;;;;;;;3.90;3.53;;;;;;;9.68;90.77;101189.34;6112252;28;20239;-67
2022/12/20 09:36:29;;;;;;;3.97;3.67;;;;;;;9.65;90.46;101174.34;6106547;28;20235;-68
2022/12/20 09:39:50;;;;;;;7.10;4.40;;;;;;;9.62;90.98;101182.63;6103451;28;20232;-69
2022/12/20 09:43:12;;;;;;;4.90;3.47;;;;;;;9.67;90.88;101174.19;6104871;28;20268;-69
2022/12/20 09:46:33;;;;;;;5.43;3.47;;;;;;;9.68;90.73;101186.66;6101322;28;20228;-69
2022/12/20 09:49:57;;;;;;;5.33;3.93;;;;;;;9.72;90.61;101192.69;6108402;28;20822;-69
2022/12/20 09:53:32;;;;;;;4.80;4.23;;;;;;;9.75;90.40;101173.56;6105518;28;20232;-68
2022/12/20 09:57:00;;;;;;;3.23;2.93;;;;;;;9.82;90.63;101185.56;6105313;28;20513;-70
2022/12/20 10:00:21;;;;;;;4.37;4.07;;;;;;;9.84;90.54;101180.91;6114969;28;20243;-70
2022/12/20 10:03:42;;;;;;;3.67;3.30;;;;;;;9.90;90.42;101169.66;6113577;28;20231;-70
2022/12/20 10:07:17;;;;;;;6.07;3.50;;;;;;;9.89;91.38;101176.03;6104436;28;20231;-69
2022/12/20 10:10:53;;;;;;;4.13;3.50;;;;;;;9.88;91.99;101172.47;6110198;28;20364;-69
2022/12/20 10:14:30;;;;;;;5.47;3.43;;;;;;;9.85;92.64;101150.31;6114219;28;20224;-69
2022/12/20 10:18:06;;;;;;;4.33;3.27;;;;;;;9.88;92.45;101142.84;6110099;28;20243;-69
2022/12/20 10:21:37;;;;;;;5.17;3.33;;;;;;;9.95;92.24;101135.13;6108782;28;20228;-70
2022/12/20 10:25:07;;;;;;;4.13;3.73;;;;;;;10.13;92.13;101145.28;6101744;28;20240;-69
2022/12/20 10:28:31;;;;;;;7.87;3.70;;;;;;;10.07;90.69;101134.13;6095850;28;20232;-69
2022/12/20 10:31:54;;;;;;;3.60;2.63;;;;;;;10.11;91.09;101120.31;6108482;28;20251;-69
2022/12/20 10:35:24;;;;;;;6.73;3.67;;;;;;;10.15;90.41;101113.69;6123258;28;20295;-69
2022/12/20 10:38:48;;;;;;;5.23;3.73;;;;;;;10.11;90.30;101109.53;6121467;28;20295;-70
2022/12/20 10:42:31;;;;;;;8.20;3.17;;;;;;;10.16;89.31;101101.03;6100548;28;20231;-71
2022/12/20 10:45:58;;;;;;;4.10;3.67;;;;;;;10.19;88.68;101098.09;6110308;28;20231;-72
2022/12/20 10:49:29;;;;;;;3.37;3.07;;;;;;;10.26;88.97;101108.22;6100697;28;20633;-71
2022/12/20 10:53:11;;;;;;;4.10;3.70;;;;;;;10.32;88.17;101104.19;6106368;28;20270;-70
2022/12/20 10:56:35;;;;;;;4.20;3.10;;;;;;;10.37;88.16;101089.31;6106393;28;20240;-70
2022/12/20 10:59:58;;;;;;;3.80;3.50;;;;;;;10.33;88.02;101092.41;6108009;28;20322;-70
2022/12/20 11:03:23;;;;;;;5.77;3.60;;;;;;;10.34;87.95;101084.22;6110351;28;20235;-70
2022/12/20 11:06:45;;;;;;;4.23;3.60;;;;;;;10.36;87.32;101086.78;6092313;28;20323;-71
2022/12/20 11:10:18;;;;;;;3.63;3.30;;;;;;;10.28;87.71;101087.41;6115918;28;20326;-69
2022/12/20 11:13:40;;;;;;;4.47;2.70;;;;;;;10.39;87.03;101086.50;6107785;28;20238;-69
2022/12/20 11:17:06;;;;;;;3.37;3.07;;;;;;;10.46;86.80;101085.00;6105026;28;20235;-70
2022/12/20 11:20:38;;;;;;;4.53;3.70;;;;;;;10.41;86.44;101055.75;6118588;28;20618;-68
2022/12/20 11:24:09;;;;;;;6.23;3.03;;;;;;;10.39;85.60;101056.84;6106338;28;20621;-69
2022/12/20 11:27:37;;;;;;;4.13;3.73;;;;;;;10.39;86.31;101068.50;6092946;28;20648;-69
2022/12/20 11:31:10;;;;;;;4.33;3.17;;;;;;;10.44;85.84;101063.56;6109918;28;20240;-70
2022/12/20 11:34:40;;;;;;;4.70;4.30;;;;;;;10.45;86.16;101059.06;6111728;28;20239;-69
2022/12/20 11:38:14;;;;;;;8.33;4.97;;;;;;;10.51;85.34;101038.78;6106678;28;20269;-69
2022/12/20 11:41:43;;;;;;;4.30;2.47;;;;;;;10.57;84.52;101038.25;6098895;28;20239;-69
2022/12/20 11:45:09;;;;;;;4.00;2.80;;;;;;;10.63;84.01;101032.34;6101290;28;20233;-69
2022/12/20 11:48:50;;;;;;;3.77;2.80;;;;;;;10.65;83.64;101025.84;6102004;28;20316;-70
2022/12/20 11:52:21;;;;;;;4.27;3.87;;;;;;;10.71;83.05;101030.69;6097776;28;20232;-69
2022/12/20 11:55:46;;;;;;;3.63;2.17;;;;;;;10.87;81.93;101017.56;6109164;28;20236;-69
2022/12/20 11:59:16;;;;;;;2.83;2.53;;;;;;;10.85;82.40;101019.53;6100622;28;20232;-69
2022/12/20 12:02:44;;;;;;;3.33;2.30;;;;;;;10.87;81.82;101025.66;6107011;28;20515;-69
2022/12/20 12:06:11;;;;;;;3.70;3.17;;;;;;;10.92;81.72;101019.88;6115246;28;20235;-70
2022/12/20 12:09:36;;;;;;;3.97;2.60;;;;;;;10.98;80.28;101033.66;6103055;28;20240;-69
2022/12/20 12:13:04;;;;;;;2.30;1.87;;;;;;;10.89;80.95;101022.84;6109336;28;20235;-70
2022/12/20 12:16:29;;;;;;;3.53;3.27;;;;;;;10.92;81.61;101027.97;6102828;28;20235;-70
2022/12/20 12:19:52;;;;;;;3.10;2.80;;;;;;;10.98;81.01;101017.50;6094893;28;20235;-69
2022/12/20 12:23:20;;;;;;;3.80;2.50;;;;;;;10.92;81.12;101030.66;6106773;28;20318;-70
2022/12/20 12:26:41;;;;;;;2.77;2.53;;;;;;;10.92;81.34;101018.03;6095844;28;20617;-69
2022/12/20 12:30:04;;;;;;;5.00;3.97;;;;;;;11.03;80.82;101017.94;6103277;28;20248;-70
2022/12/20 12:33:32;;;;;;;3.27;2.60;;;;;;;11.01;80.18;101019.06;6108234;28;20318;-70
2022/12/20 12:37:33;;;;;;;2.53;1.97;;;;;;;11.03;80.93;101011.69;6101914;28;20235;-69
2022/12/20 12:41:29;;;;;;;4.90;2.37;;;;;;;11.00;82.03;101010.09;6109779;28;20499;-69
2022/12/20 12:44:54;;;;;;;3.10;2.07;;;;;;;10.92;84.01;101009.94;6097211;28;20495;-69
2022/12/20 12:48:22;;;;;;;1.67;1.43;;;;;;;10.84;84.65;100992.72;6110298;28;20684;-69
2022/12/20 12:51:50;;;;;;;3.80;2.07;;;;;;;10.73;85.94;100995.50;6096714;28;20259;-69
2022/12/20 12:55:42;;;;;;;1.80;1.70;;;;;;;10.76;85.48;100992.53;6101522;28;20231;-69
2022/12/20 12:59:40;;;;;;;4.17;2.20;;;;;;;10.61;86.57;100983.94;6086506;28;20236;-69
2022/12/20 13:03:14;;;;;;;2.93;1.77;;;;;;;10.48;88.47;100975.22;6109758;28;20223;-69
2022/12/20 13:07:02;;;;;;;3.17;2.87;;;;;;;10.43;88.81;100972.91;6099993;28;20384;-69
2022/12/20 13:11:06;;;;;;;2.90;2.30;;;;;;;10.50;87.95;100965.16;6102049;28;20259;-69
2022/12/20 13:14:49;;;;;;;3.13;2.07;;;;;;;10.43;88.10;100969.34;6102403;28;20274;-69
2022/12/20 13:18:28;;;;;;;2.73;2.20;;;;;;;10.38;88.68;100959.00;6100282;28;20227;-68
2022/12/20 13:21:55;;;;;;;3.43;3.13;;;;;;;10.33;88.13;100954.97;6094259;28;20305;-69
2022/12/20 13:25:30;;;;;;;4.40;3.23;;;;;;;10.28;89.15;100949.16;6111408;28;20231;-69
2022/12/20 13:28:51;;;;;;;4.60;3.47;;;;;;;10.27;88.62;100953.69;6108553;28;20258;-69
2022/12/20 13:32:45;;;;;;;3.20;3.00;;;;;;;10.28;88.85;100957.22;6100164;28;20239;-69
2022/12/20 13:36:32;;;;;;;3.47;2.80;;;;;;;10.24;89.35;100958.50;6114576;28;20239;-69
2022/12/20 13:39:53;;;;;;;3.73;3.27;;;;;;;10.17;89.33;100960.84;6104808;28;20236;-69
2022/12/20 13:43:25;;;;;;;3.27;2.67;;;;;;;10.18;89.18;100967.94;6107108;28;20239;-70
2022/12/20 13:46:50;;;;;;;2.17;1.97;;;;;;;10.20;89.01;100982.13;6086408;28;20277;-69
2022/12/20 13:50:24;;;;;;;3.90;2.77;;;;;;;10.17;88.84;100960.00;6118005;28;20279;-69
2022/12/20 13:53:52;;;;;;;4.47;3.30;;;;;;;10.15;89.32;100967.34;6104673;28;20271;-69
2022/12/20 13:57:16;;;;;;;3.60;2.90;;;;;;;10.11;90.13;100965.91;6096515;28;20231;-70
2022/12/20 14:00:39;;;;;;;5.87;2.80;;;;;;;10.12;90.28;100978.38;6113048;28;20490;-69
2022/12/20 14:04:05;;;;;;;3.20;2.80;;;;;;;10.13;89.94;100978.25;6103738;28;20224;-69
2022/12/20 14:07:29;;;;;;;3.47;3.17;;;;;;;10.14;89.69;100982.66;6105852;28;20231;-69
2022/12/20 14:10:52;;;;;;;5.87;4.03;;;;;;;10.07;90.40;100980.59;6110352;28;20634;-69
2022/12/20 14:14:13;;;;;;;2.57;2.37;;;;;;;10.05;90.98;100990.63;6126702;28;20248;-70
2022/12/20 14:17:36;;;;;;;6.13;2.90;;;;;;;10.02;91.55;100980.97;6100065;28;20239;-69
2022/12/20 14:21:00;;;;;;;3.77;3.03;;;;;;;9.95;91.94;100985.16;6105905;28;20311;-67
2022/12/20 14:24:22;;;;;;;3.77;2.70;;;;;;;9.90;92.23;100979.31;6117489;28;20244;-68
2022/12/20 14:27:45;;;;;;;6.97;3.13;;;;;;;9.91;91.64;100978.31;6103810;28;20965;-71
2022/12/20 14:31:07;;;;;;;2.80;2.60;;;;;;;9.91;92.06;100977.50;6110109;28;20237;-70
2022/12/20 14:34:32;;;;;;;2.87;2.57;;;;;;;9.93;92.55;100975.53;6117337;28;20231;-70
2022/12/20 14:37:54;;;;;;;2.77;2.40;;;;;;;9.90;93.20;100955.09;6111207;28;20825;-70
2022/12/20 14:41:30;;;;;;;2.67;2.47;;;;;;;9.87;93.69;100941.00;6109682;28;20224;-70
2022/12/20 14:45:03;;;;;;;3.33;2.40;;;;;;;9.84;94.15;100949.38;6092106;28;20236;-70
2022/12/20 14:48:24;;;;;;;3.37;2.47;;;;;;;9.81;94.38;100949.59;6110538;28;20238;-70
2022/12/20 14:51:47;;;;;;;3.70;2.87;;;;;;;9.82;94.31;100945.94;6097271;28;20251;-70
2022/12/20 14:55:16;;;;;;;4.33;3.07;;;;;;;9.74;95.49;100953.81;6116875;28;20264;-70
2022/12/20 14:58:38;;;;;;;5.47;3.40;;;;;;;9.71;94.93;100952.25;6104893;28;20235;-70
2022/12/20 15:02:38;;;;;;;5.60;3.20;;;;;;;9.70;95.13;100958.59;6094260;28;20239;-69
2022/12/20 15:06:00;;;;;;;7.43;3.53;;;;;;;9.68;95.04;100955.16;6104461;28;20231;-70
2022/12/20 15:09:22;;;;;;;3.10;2.67;;;;;;;9.64;95.29;100969.88;6101431;28;20504;-70
2022/12/20 15:12:45;;;;;;;7.43;3.23;;;;;;;9.61;95.52;100962.94;6111114;28;20794;-69
2022/12/20 15:16:14;;;;;;;4.87;3.43;;;;;;;9.62;95.73;100961.94;6108085;28;20243;-69
2022/12/20 15:19:35;;;;;;;2.53;2.33;;;;;;;9.62;95.73;100943.09;6097828;28;20263;-70
2022/12/20 15:22:56;;;;;;;3.93;2.97;;;;;;;9.63;95.22;100958.28;6114800;28;20239;-70
2022/12/20 15:26:21;;;;;;;10.87;3.90;;;;;;;9.62;95.38;100948.47;6111945;28;20239;-69
2022/12/20 15:29:42;;;;;;;4.43;2.93;;;;;;;9.61;95.40;100944.09;6095074;28;20540;-70
2022/12/20 15:33:04;;;;;;;4.50;3.60;;;;;;;9.63;95.09;100946.66;6109185;28;20239;-70
2022/12/20 15:36:26;;;;;;;2.50;2.33;;;;;;;9.64;95.28;100938.44;6116886;28;20232;-69
2022/12/20 15:39:47;;;;;;;5.13;3.10;;;;;;;9.68;95.45;100940.88;6094878;28;20255;-70
2022/12/20 15:43:12;;;;;;;3.00;2.70;;;;;;;9.71;94.87;100943.28;6097369;28;20239;-69
2022/12/20 15:46:33;;;;;;;12.50;3.17;;;;;;;9.68;95.13;100939.03;6103793;28;20907;-69
2022/12/20 15:49:54;;;;;;;3.10;2.90;;;;;;;9.68;95.25;100947.97;6099758;28;20290;-71
2022/12/20 15:53:21;;;;;;;4.47;3.33;;;;;;;9.74;94.79;100945.75;6090057;28;20235;-71
2022/12/20 15:56:42;;;;;;;2.60;2.40;;;;;;;9.76;94.58;100941.94;6102889;28;20228;-70
2022/12/20 16:00:05;;;;;;;4.30;3.93;;;;;;;9.80;94.04;100956.84;6113958;28;20232;-70
2022/12/20 16:03:33;;;;;;;2.20;2.00;;;;;;;9.80;93.88;100948.78;6111514;28;20227;-70
2022/12/20 16:06:54;;;;;;;3.60;2.57;;;;;;;9.83;93.91;100937.72;6093274;28;20311;-69
2022/12/20 16:10:15;;;;;;;5.00;3.03;;;;;;;9.84;94.20;100934.06;6112224;28;20232;-69
2022/12/20 16:13:36;;;;;;;6.30;2.80;;;;;;;9.91;94.42;100943.31;6111466;28;20609;-70
2022/12/20 16:16:58;;;;;;;2.70;2.50;;;;;;;9.93;94.02;100945.91;6097587;28;20243;-70